Skip Navigation Links Skip Navigation Links

Current Weather

Ronald Reagan Washington National, Washington

For information only: do not use for flight planning or navigation.
Latest weather
Observation time Thursday, February 22, 2018 9:04 PM EST
Local time Thursday, February 22, 2018 9:34 PM EST
Flight conditions Marginal Visual Meteorological Conditions
Winds
Wind direction East-Northeast (70°)
Wind speed 10 mph
Visibility 10 mi.
Sky condition
Ceiling 1,300 ft. overcast
Cloud layer overcast 1,300 ft.
Temperature 45°F
Dewpoint 41°F
Altimeter 30.58 in.Hg
Derived measurements
Relative humidity 86%
Wind chill 40°F
Density altitude -1548 ft.
Remarks
Special weather observation.
Automated weather observing station with precipitation discriminator.
METAR SPUS70 KWBC 230208 SPECI KDCA 230204Z 07009KT 10SM OVC013 07/05 A3058 RMK AO2 T00720050

Settings

Location code

InnerDrive.Weather 4.0.6615.0 Release CLR 4.0.30319.42000
Copyright ©2018 Inner Drive Technology. All rights reserved. Portions Copyright ©1986-2018 David Braverman.

Find weather

Site navigation


Skip Navigation Links

Place info

Page info

PayPal - The safer, easier way to pay online!

Return home.

Copyright ©2018 Inner Drive Technology. Purveyors of fine, hand-crafted computer software. Page printed 2018-02-23T02:34:38 UTC.